createdAt,value
2018-09-08T00:00:51.502Z,12.30
2018-09-08T00:03:18.676Z,12.20
2018-09-08T00:05:45.838Z,12.20
2018-09-08T00:08:13.166Z,12.20
2018-09-08T00:10:40.475Z,12.20
2018-09-08T00:13:07.670Z,12.00
2018-09-08T00:15:40.748Z,12.00
2018-09-08T00:18:13.606Z,11.90
2018-09-08T00:20:46.498Z,12.00
2018-09-08T00:23:19.439Z,11.90
2018-09-08T00:25:59.099Z,12.00
2018-09-08T00:28:33.703Z,12.00
2018-09-08T00:31:01.118Z,11.80
2018-09-08T00:33:28.232Z,11.80
2018-09-08T00:35:55.662Z,11.90
2018-09-08T00:38:22.832Z,12.30
2018-09-08T00:40:49.939Z,12.20
2018-09-08T00:43:17.247Z,12.00
2018-09-08T00:45:44.449Z,11.80
2018-09-08T00:48:11.712Z,11.70
2018-09-08T00:50:39.023Z,11.70
2018-09-08T00:53:06.207Z,11.70
2018-09-08T00:55:33.390Z,11.60
2018-09-08T00:58:00.543Z,11.50
2018-09-08T01:00:27.711Z,11.40
2018-09-08T01:03:03.830Z,11.50
2018-09-08T01:05:30.937Z,11.40
2018-09-08T01:07:58.054Z,11.40
2018-09-08T01:10:25.169Z,11.40
2018-09-08T01:12:52.277Z,11.30
2018-09-08T01:15:19.404Z,11.10
2018-09-08T01:17:46.545Z,11.10
2018-09-08T01:20:13.764Z,11.10
2018-09-08T01:22:40.998Z,11.10
2018-09-08T01:25:08.254Z,11.10
2018-09-08T01:27:35.361Z,11.00
2018-09-08T01:30:02.509Z,11.00
2018-09-08T01:32:29.622Z,11.00
2018-09-08T01:34:56.726Z,10.90
2018-09-08T01:37:23.842Z,10.70
2018-09-08T01:39:50.974Z,10.60
2018-09-08T01:42:18.101Z,10.60
2018-09-08T01:44:45.311Z,10.60
2018-09-08T01:47:12.549Z,10.60
2018-09-08T01:49:39.784Z,10.40
2018-09-08T01:52:07.154Z,10.50
2018-09-08T01:54:34.258Z,10.40
2018-09-08T01:57:01.405Z,10.30
2018-09-08T01:59:28.579Z,10.20
2018-09-08T02:01:55.711Z,10.20
2018-09-08T02:04:22.829Z,10.20
2018-09-08T02:06:49.952Z,10.10
2018-09-08T02:09:17.097Z,10.20
2018-09-08T02:11:44.365Z,10.20
2018-09-08T02:14:11.586Z,10.10
2018-09-08T02:16:38.785Z,10.00
2018-09-08T02:19:06.000Z,10.00
2018-09-08T02:21:33.126Z,9.80
2018-09-08T02:24:00.292Z,9.80
2018-09-08T02:26:27.421Z,9.80
2018-09-08T02:28:54.567Z,9.80
2018-09-08T02:31:21.698Z,9.80
2018-09-08T02:33:48.831Z,9.80
2018-09-08T02:36:16.032Z,9.80
2018-09-08T02:38:43.219Z,9.90
2018-09-08T02:41:10.541Z,9.70
2018-09-08T02:43:37.765Z,9.70
2018-09-08T02:46:05.001Z,9.60
2018-09-08T02:48:32.148Z,9.50
2018-09-08T02:50:58.357Z,9.50
2018-09-08T02:53:24.573Z,9.40
2018-09-08T02:55:50.798Z,9.40
2018-09-08T02:58:17.020Z,9.40
2018-09-08T03:00:43.296Z,9.40
2018-09-08T03:03:09.595Z,9.40
2018-09-08T03:05:35.830Z,9.50
2018-09-08T03:08:02.059Z,9.40
2018-09-08T03:10:28.299Z,9.50
2018-09-08T03:12:54.522Z,9.50
2018-09-08T03:15:20.733Z,9.40
2018-09-08T03:17:47.001Z,9.40
2018-09-08T03:20:13.291Z,9.40
2018-09-08T03:22:39.622Z,9.40
2018-09-08T03:25:05.855Z,9.40
2018-09-08T03:27:32.093Z,9.30
2018-09-08T03:29:58.383Z,9.30
2018-09-08T03:32:24.602Z,9.40
2018-09-08T03:34:50.850Z,9.40
2018-09-08T03:37:17.106Z,9.40
2018-09-08T03:39:43.361Z,9.40
2018-09-08T03:42:09.636Z,9.30
2018-09-08T03:44:35.852Z,9.40
2018-09-08T03:47:02.084Z,9.20
2018-09-08T03:49:28.302Z,9.00
2018-09-08T03:51:54.533Z,9.00
2018-09-08T03:54:20.749Z,8.90
2018-09-08T03:56:46.980Z,8.90
2018-09-08T03:59:13.257Z,8.90
2018-09-08T04:01:39.510Z,8.80
2018-09-08T04:04:06.753Z,8.80
2018-09-08T04:06:33.950Z,8.90
2018-09-08T04:09:01.057Z,9.00
2018-09-08T04:11:28.198Z,8.90
2018-09-08T04:13:55.346Z,8.90
2018-09-08T04:16:22.500Z,9.00
2018-09-08T04:18:49.651Z,9.00
2018-09-08T04:21:16.853Z,8.90
2018-09-08T04:23:44.031Z,8.80
2018-09-08T04:26:11.199Z,8.80
2018-09-08T04:28:38.422Z,8.80
2018-09-08T04:31:06.014Z,8.80
2018-09-08T04:33:40.080Z,8.80
2018-09-08T04:36:07.284Z,8.70
2018-09-08T04:38:34.386Z,8.80
2018-09-08T04:41:01.609Z,8.80
2018-09-08T04:43:28.706Z,8.80
2018-09-08T04:45:55.830Z,8.90
2018-09-08T04:48:22.966Z,8.80
2018-09-08T04:50:50.121Z,8.70
2018-09-08T04:53:17.350Z,8.70
2018-09-08T04:55:44.511Z,8.60
2018-09-08T04:58:11.678Z,8.60
2018-09-08T05:00:38.858Z,8.60
2018-09-08T05:03:06.114Z,8.70
2018-09-08T05:05:33.237Z,8.60
2018-09-08T05:08:00.349Z,8.60
2018-09-08T05:10:27.464Z,8.60
2018-09-08T05:12:54.609Z,8.60
2018-09-08T05:15:21.761Z,8.70
2018-09-08T05:17:48.945Z,8.70
2018-09-08T05:20:16.164Z,8.70
2018-09-08T05:22:43.342Z,8.70
2018-09-08T05:25:10.610Z,8.70
2018-09-08T05:27:37.839Z,8.70
2018-09-08T05:30:05.167Z,8.80
2018-09-08T05:32:32.266Z,8.80
2018-09-08T05:35:06.177Z,8.90
2018-09-08T05:37:33.300Z,9.10
2018-09-08T05:40:00.426Z,9.30
2018-09-08T05:42:27.575Z,9.50
2018-09-08T05:44:54.727Z,9.70
2018-09-08T05:47:21.931Z,9.90
2018-09-08T05:49:49.078Z,10.00
2018-09-08T05:52:16.223Z,10.30
2018-09-08T05:54:43.417Z,10.70
2018-09-08T05:57:10.626Z,10.90
2018-09-08T05:59:37.802Z,11.20
2018-09-08T06:02:04.959Z,12.00
2018-09-08T06:04:32.078Z,13.10
2018-09-08T06:07:03.302Z,14.30
2018-09-08T06:09:31.417Z,14.10
2018-09-08T06:11:58.779Z,13.60
2018-09-08T06:14:25.951Z,13.40
2018-09-08T06:16:53.321Z,13.20
2018-09-08T06:19:20.474Z,12.80
2018-09-08T06:21:47.614Z,12.70
2018-09-08T06:24:14.751Z,12.60
2018-09-08T06:26:42.058Z,13.00
2018-09-08T06:29:09.244Z,13.80
2018-09-08T06:31:36.397Z,15.20
2018-09-08T06:34:03.512Z,18.80
2018-09-08T06:36:30.701Z,21.40
2018-09-08T06:38:57.826Z,23.20
2018-09-08T06:41:24.930Z,24.40
2018-09-08T06:43:52.029Z,25.70
2018-09-08T06:46:19.186Z,26.50
2018-09-08T06:48:46.304Z,27.60
2018-09-08T06:51:13.506Z,28.50
2018-09-08T06:53:40.717Z,28.80
2018-09-08T06:56:07.991Z,29.00
2018-09-08T06:58:35.146Z,29.50
2018-09-08T07:01:02.293Z,29.50
2018-09-08T07:03:29.486Z,29.30
2018-09-08T07:05:56.511Z,30.50
2018-09-08T07:08:23.612Z,30.40
2018-09-08T07:10:50.795Z,30.70
2018-09-08T07:13:17.944Z,31.00
2018-09-08T07:15:45.088Z,30.80
2018-09-08T07:18:12.299Z,31.30
2018-09-08T07:20:39.462Z,32.10
2018-09-08T07:23:06.591Z,32.00
2018-09-08T07:25:33.895Z,32.20
2018-09-08T07:28:01.082Z,31.90
2018-09-08T07:30:28.201Z,31.90
2018-09-08T07:32:55.306Z,32.30
2018-09-08T07:35:22.449Z,33.30
2018-09-08T07:37:49.559Z,32.90
2018-09-08T07:40:16.677Z,32.80
2018-09-08T07:42:43.857Z,33.00
2018-09-08T07:45:11.014Z,33.00
2018-09-08T07:47:38.693Z,33.50
2018-09-08T07:50:05.853Z,33.50
2018-09-08T07:52:32.962Z,33.60
2018-09-08T07:55:00.134Z,33.90
2018-09-08T07:57:27.234Z,33.70
2018-09-08T07:59:54.363Z,34.20
2018-09-08T08:02:21.482Z,33.90
2018-09-08T08:04:48.625Z,33.70
2018-09-08T08:07:15.792Z,33.80
2018-09-08T08:09:44.281Z,34.10
2018-09-08T08:12:11.726Z,33.70
2018-09-08T08:14:39.627Z,34.00
2018-09-08T08:17:06.656Z,33.60
2018-09-08T08:19:34.318Z,33.40
2018-09-08T08:22:01.578Z,34.00
2018-09-08T08:24:28.850Z,33.10
2018-09-08T08:26:55.973Z,33.50
2018-09-08T08:29:23.132Z,33.70
2018-09-08T08:31:50.266Z,33.70
2018-09-08T08:34:17.364Z,33.40
2018-09-08T08:36:44.548Z,33.20
2018-09-08T08:39:11.810Z,33.20
2018-09-08T08:41:39.092Z,32.80
2018-09-08T08:44:06.713Z,32.50
2018-09-08T08:46:33.877Z,32.20
2018-09-08T08:49:00.978Z,32.10
2018-09-08T08:51:39.658Z,31.30
2018-09-08T08:54:15.442Z,30.80
2018-09-08T08:56:42.610Z,30.40
2018-09-08T08:59:09.833Z,30.10
2018-09-08T09:01:37.222Z,29.20
2018-09-08T09:04:04.397Z,27.70
2018-09-08T09:06:31.576Z,26.70
2018-09-08T09:08:58.684Z,25.70
2018-09-08T09:11:25.794Z,24.90
2018-09-08T09:13:52.909Z,24.20
2018-09-08T09:16:20.038Z,23.50
2018-09-08T09:18:59.364Z,22.90
2018-09-08T09:21:37.534Z,22.50
2018-09-08T09:24:25.654Z,22.10
2018-09-08T09:26:52.341Z,21.70
2018-09-08T09:29:19.811Z,21.40
2018-09-08T09:31:47.086Z,21.20
2018-09-08T09:34:14.231Z,21.10
2018-09-08T09:36:41.950Z,20.90
2018-09-08T09:39:10.465Z,20.80
2018-09-08T09:41:37.898Z,20.80
2018-09-08T09:44:05.102Z,20.90
2018-09-08T09:46:32.244Z,20.80
2018-09-08T09:48:59.362Z,20.90
2018-09-08T09:51:26.658Z,20.80
2018-09-08T09:53:54.221Z,20.70
2018-09-08T09:56:21.328Z,20.60
2018-09-08T09:58:48.745Z,20.70
2018-09-08T10:01:20.514Z,20.80
2018-09-08T10:03:47.711Z,20.80
2018-09-08T10:06:14.930Z,20.70
2018-09-08T10:08:42.176Z,20.60
2018-09-08T10:11:09.371Z,20.70
2018-09-08T10:13:36.508Z,20.70
2018-09-08T10:16:03.641Z,20.50
2018-09-08T10:18:30.802Z,20.50
2018-09-08T10:20:57.924Z,20.50
2018-09-08T10:23:25.111Z,20.50
2018-09-08T10:25:52.207Z,20.50
2018-09-08T10:28:19.318Z,20.50
2018-09-08T10:30:46.470Z,20.40
2018-09-08T10:33:14.089Z,20.50
2018-09-08T10:35:41.270Z,20.50
2018-09-08T10:38:08.522Z,20.40
2018-09-08T10:40:35.911Z,20.20
2018-09-08T10:43:03.097Z,20.20
2018-09-08T10:45:30.216Z,20.20
2018-09-08T10:47:57.330Z,19.80
2018-09-08T10:50:24.447Z,19.90
2018-09-08T10:52:51.615Z,20.00
2018-09-08T10:55:18.736Z,20.10
2018-09-08T10:57:45.894Z,20.20
2018-09-08T11:00:14.737Z,20.10
2018-09-08T11:02:42.319Z,20.10
2018-09-08T11:05:09.241Z,20.20
2018-09-08T11:07:36.459Z,20.20
2018-09-08T11:10:04.250Z,20.10
2018-09-08T11:12:31.406Z,20.10
2018-09-08T11:14:58.556Z,20.10
2018-09-08T11:17:25.693Z,20.10
2018-09-08T11:19:53.043Z,20.10
2018-09-08T11:22:20.178Z,20.00
2018-09-08T11:24:47.399Z,20.00
2018-09-08T11:27:14.963Z,20.10
2018-09-08T11:29:42.183Z,20.00
2018-09-08T11:32:09.535Z,19.90
2018-09-08T11:34:36.895Z,19.90
2018-09-08T11:37:04.121Z,20.00
2018-09-08T11:39:31.278Z,20.10
2018-09-08T11:41:58.403Z,20.20
2018-09-08T11:44:25.544Z,20.20
2018-09-08T11:46:52.716Z,20.20
2018-09-08T11:49:19.846Z,20.30
2018-09-08T11:51:46.982Z,20.20
2018-09-08T11:54:14.129Z,20.20
2018-09-08T11:56:41.322Z,20.30
2018-09-08T11:59:08.483Z,20.30
2018-09-08T12:01:35.606Z,20.20
2018-09-08T12:04:02.755Z,20.30
2018-09-08T12:06:29.945Z,20.30
2018-09-08T12:08:57.014Z,20.40
2018-09-08T12:11:24.174Z,20.40
2018-09-08T12:13:51.307Z,20.40
2018-09-08T12:16:18.454Z,20.40
2018-09-08T12:18:45.582Z,20.50
2018-09-08T12:21:12.747Z,20.50
2018-09-08T12:23:39.972Z,20.60
2018-09-08T12:26:07.497Z,20.50
2018-09-08T12:28:34.589Z,20.50
2018-09-08T12:31:01.785Z,20.50
2018-09-08T12:33:28.834Z,20.50
2018-09-08T12:35:55.980Z,20.50
2018-09-08T12:38:23.134Z,20.50
2018-09-08T12:40:50.274Z,20.50
2018-09-08T12:43:17.385Z,20.50
2018-09-08T12:45:44.708Z,20.50
2018-09-08T12:48:11.873Z,20.50
2018-09-08T12:50:39.126Z,20.40
2018-09-08T12:53:06.938Z,20.50
2018-09-08T12:55:34.064Z,20.50
2018-09-08T12:58:01.234Z,20.50
2018-09-08T13:00:28.361Z,20.50
2018-09-08T13:02:55.480Z,20.50
2018-09-08T13:05:22.606Z,20.50
2018-09-08T13:07:49.804Z,20.40
2018-09-08T13:10:17.234Z,20.50
2018-09-08T13:12:44.654Z,20.50
2018-09-08T13:15:11.840Z,20.50
2018-09-08T13:17:39.096Z,20.40
2018-09-08T13:20:06.242Z,20.30
2018-09-08T13:22:33.354Z,20.30
2018-09-08T13:25:00.464Z,20.40
2018-09-08T13:27:27.586Z,20.40
2018-09-08T13:29:54.772Z,20.50
2018-09-08T13:32:21.886Z,20.60
2018-09-08T13:34:49.006Z,20.70
2018-09-08T13:37:16.131Z,20.70
2018-09-08T13:39:43.354Z,20.70
2018-09-08T13:42:10.498Z,20.80
2018-09-08T13:44:37.694Z,20.80
2018-09-08T13:47:04.839Z,20.80
2018-09-08T13:49:31.918Z,20.80
2018-09-08T13:51:59.049Z,21.00
2018-09-08T13:54:26.173Z,20.90
2018-09-08T13:56:53.269Z,20.80
2018-09-08T13:59:20.389Z,20.80
2018-09-08T14:01:47.517Z,20.70
2018-09-08T14:04:14.668Z,20.80
2018-09-08T14:06:41.828Z,20.90
2018-09-08T14:09:09.329Z,21.00
2018-09-08T14:11:36.534Z,20.90
2018-09-08T14:14:03.678Z,20.90
2018-09-08T14:16:30.811Z,20.80
2018-09-08T14:18:57.980Z,20.80
2018-09-08T14:21:25.100Z,20.80
2018-09-08T14:23:52.225Z,20.70
2018-09-08T14:26:19.381Z,20.60
2018-09-08T14:28:46.498Z,20.70
2018-09-08T14:31:13.684Z,20.70
2018-09-08T14:33:40.986Z,20.80
2018-09-08T14:36:08.404Z,20.80
2018-09-08T14:38:35.558Z,20.90
2018-09-08T14:41:02.733Z,20.80
2018-09-08T14:43:29.863Z,20.90
2018-09-08T14:45:57.001Z,21.00
2018-09-08T14:48:24.117Z,21.10
2018-09-08T14:50:51.235Z,21.20
2018-09-08T14:53:18.370Z,21.20
2018-09-08T14:55:45.623Z,21.20
2018-09-08T14:58:12.779Z,21.30
2018-09-08T15:00:39.975Z,21.30
2018-09-08T15:03:07.156Z,21.30
2018-09-08T15:05:34.277Z,21.40
2018-09-08T15:08:01.406Z,21.40
2018-09-08T15:10:28.547Z,21.60
2018-09-08T15:12:55.667Z,21.70
2018-09-08T15:15:22.809Z,21.70
2018-09-08T15:17:49.940Z,21.80
2018-09-08T15:20:17.054Z,21.80
2018-09-08T15:22:44.231Z,21.90
2018-09-08T15:25:11.506Z,21.90
2018-09-08T15:27:38.706Z,21.90
2018-09-08T15:30:05.994Z,22.00
2018-09-08T15:32:33.218Z,22.00
2018-09-08T15:35:00.325Z,22.00
2018-09-08T15:37:27.451Z,22.00
2018-09-08T15:39:54.566Z,22.00
2018-09-08T15:42:21.698Z,22.00
2018-09-08T15:44:48.842Z,21.90
2018-09-08T15:47:16.022Z,22.00
2018-09-08T15:49:43.190Z,22.00
2018-09-08T15:52:10.512Z,22.10
2018-09-08T15:54:37.787Z,22.10
2018-09-08T15:57:04.932Z,22.10
2018-09-08T15:59:32.028Z,22.10
2018-09-08T16:01:59.188Z,22.20
2018-09-08T16:04:26.433Z,22.40
2018-09-08T16:06:53.493Z,22.40
2018-09-08T16:09:20.602Z,22.40
2018-09-08T16:11:47.736Z,22.40
2018-09-08T16:14:15.116Z,22.30
2018-09-08T16:16:42.294Z,22.20
2018-09-08T16:19:09.656Z,22.10
2018-09-08T16:21:36.830Z,21.90
2018-09-08T16:24:04.006Z,21.80
2018-09-08T16:26:31.166Z,21.70
2018-09-08T16:28:58.289Z,21.60
2018-09-08T16:31:25.409Z,21.60
2018-09-08T16:33:52.514Z,21.60
2018-09-08T16:36:19.640Z,21.50
2018-09-08T16:38:46.896Z,21.40
2018-09-08T16:41:14.074Z,21.40
2018-09-08T16:43:41.433Z,21.40
2018-09-08T16:46:08.680Z,21.30
2018-09-08T16:48:35.802Z,21.20
2018-09-08T16:51:02.919Z,21.10
2018-09-08T16:53:30.031Z,21.00
2018-09-08T16:55:57.197Z,21.00
2018-09-08T16:58:24.316Z,20.90
2018-09-08T17:00:51.458Z,20.80
2018-09-08T17:03:23.663Z,20.80
2018-09-08T17:05:50.782Z,20.80
2018-09-08T17:08:18.542Z,20.70
2018-09-08T17:10:47.690Z,20.60
2018-09-08T17:13:14.844Z,20.50
2018-09-08T17:15:42.254Z,20.50
2018-09-08T17:18:09.434Z,20.40
2018-09-08T17:20:36.553Z,20.50
2018-09-08T17:23:03.825Z,20.50
2018-09-08T17:25:30.978Z,20.40
2018-09-08T17:27:58.079Z,20.30
2018-09-08T17:30:25.359Z,20.10
2018-09-08T17:32:52.488Z,20.00
2018-09-08T17:35:19.614Z,20.00
2018-09-08T17:37:46.805Z,19.90
2018-09-08T17:40:13.968Z,19.70
2018-09-08T17:42:41.109Z,19.70
2018-09-08T17:45:08.310Z,19.60
2018-09-08T17:47:35.437Z,19.50
2018-09-08T17:50:02.596Z,19.40
2018-09-08T17:52:29.713Z,19.40
2018-09-08T17:54:56.974Z,19.30
2018-09-08T17:57:24.116Z,19.30
2018-09-08T17:59:51.193Z,19.30
2018-09-08T18:02:18.297Z,19.30
2018-09-08T18:04:45.465Z,19.20
2018-09-08T18:07:13.742Z,19.20
2018-09-08T18:09:40.909Z,19.00
2018-09-08T18:12:08.123Z,19.00
2018-09-08T18:14:35.257Z,18.90
2018-09-08T18:17:02.409Z,18.80
2018-09-08T18:19:29.528Z,18.70
2018-09-08T18:21:56.682Z,18.60
2018-09-08T18:24:23.892Z,18.70
2018-09-08T18:26:51.013Z,18.60
2018-09-08T18:29:18.130Z,18.60
2018-09-08T18:31:45.314Z,18.60
2018-09-08T18:34:12.522Z,18.50
2018-09-08T18:36:39.719Z,18.40
2018-09-08T18:39:06.886Z,18.30
2018-09-08T18:41:34.007Z,18.30
2018-09-08T18:44:01.153Z,18.30
2018-09-08T18:46:28.261Z,18.20
2018-09-08T18:48:55.375Z,18.20
2018-09-08T18:51:22.497Z,18.10
2018-09-08T18:53:49.723Z,18.10
2018-09-08T18:56:16.966Z,18.10
2018-09-08T18:58:44.186Z,18.10
2018-09-08T19:01:11.402Z,18.00
2018-09-08T19:03:38.585Z,18.00
2018-09-08T19:06:05.749Z,17.90
2018-09-08T19:08:38.762Z,17.90
2018-09-08T19:11:05.926Z,17.80
2018-09-08T19:13:33.046Z,17.90
2018-09-08T19:16:00.212Z,17.80
2018-09-08T19:18:27.381Z,17.70
2018-09-08T19:20:54.499Z,17.60
2018-09-08T19:23:21.590Z,17.60
2018-09-08T19:25:48.959Z,17.60
2018-09-08T19:28:16.037Z,17.50
2018-09-08T19:30:43.191Z,17.50
2018-09-08T19:33:10.626Z,17.50
2018-09-08T19:35:38.897Z,17.50
2018-09-08T19:38:06.337Z,17.50
2018-09-08T19:40:39.302Z,17.30
2018-09-08T19:43:06.483Z,17.30
2018-09-08T19:45:33.907Z,17.20
2018-09-08T19:48:04.534Z,17.10
2018-09-08T19:50:32.115Z,16.90
2018-09-08T19:53:05.017Z,16.90
2018-09-08T19:55:32.162Z,16.70
2018-09-08T19:58:04.941Z,16.70
2018-09-08T20:00:32.096Z,16.70
2018-09-08T20:02:59.227Z,16.70
2018-09-08T20:05:26.405Z,16.70
2018-09-08T20:07:53.519Z,16.70
2018-09-08T20:10:20.692Z,16.60
2018-09-08T20:12:47.825Z,16.50
2018-09-08T20:15:14.992Z,16.50
2018-09-08T20:17:42.214Z,16.40
2018-09-08T20:20:09.483Z,16.40
2018-09-08T20:22:36.736Z,16.30
2018-09-08T20:25:04.017Z,16.30
2018-09-08T20:27:31.158Z,16.40
2018-09-08T20:29:58.662Z,16.30
2018-09-08T20:32:25.778Z,16.30
2018-09-08T20:34:52.967Z,16.20
2018-09-08T20:37:20.038Z,16.20
2018-09-08T20:39:47.263Z,16.30
2018-09-08T20:42:15.267Z,16.30
2018-09-08T20:44:42.433Z,16.30
2018-09-08T20:47:09.668Z,16.20
2018-09-08T20:49:36.809Z,16.00
2018-09-08T20:52:03.982Z,16.00
2018-09-08T20:54:31.098Z,15.90
2018-09-08T20:56:58.246Z,15.80
2018-09-08T20:59:25.356Z,15.70
2018-09-08T21:01:52.588Z,15.70
2018-09-08T21:04:19.737Z,15.60
2018-09-08T21:06:46.882Z,15.60
2018-09-08T21:09:14.294Z,15.50
2018-09-08T21:11:41.543Z,15.50
2018-09-08T21:14:08.707Z,15.40
2018-09-08T21:16:35.817Z,15.40
2018-09-08T21:19:03.333Z,15.40
2018-09-08T21:21:30.461Z,15.40
2018-09-08T21:23:57.621Z,15.40
2018-09-08T21:26:24.753Z,15.40
2018-09-08T21:28:51.944Z,15.40
2018-09-08T21:31:19.053Z,15.30
2018-09-08T21:33:46.235Z,15.30
2018-09-08T21:36:13.683Z,15.20
2018-09-08T21:38:40.906Z,15.20
2018-09-08T21:41:08.137Z,15.20
2018-09-08T21:43:35.266Z,15.20
2018-09-08T21:46:02.381Z,15.20
2018-09-08T21:48:29.550Z,15.10
2018-09-08T21:50:56.661Z,14.90
2018-09-08T21:53:23.757Z,14.90
2018-09-08T21:55:50.919Z,14.90
2018-09-08T21:58:18.092Z,15.00
2018-09-08T22:01:48.684Z,15.00
2018-09-08T22:04:15.898Z,15.10
2018-09-08T22:06:43.090Z,15.10
2018-09-08T22:09:10.299Z,15.10
2018-09-08T22:11:37.445Z,15.10
2018-09-08T22:14:04.598Z,15.00
2018-09-08T22:16:31.752Z,15.00
2018-09-08T22:18:58.926Z,15.00
2018-09-08T22:21:26.051Z,14.80
2018-09-08T22:23:53.168Z,14.70
2018-09-08T22:26:20.269Z,14.70
2018-09-08T22:28:47.402Z,14.60
2018-09-08T22:31:14.701Z,14.60
2018-09-08T22:33:41.902Z,14.40
2018-09-08T22:36:09.125Z,14.30
2018-09-08T22:38:36.238Z,14.30
2018-09-08T22:41:03.395Z,14.20
2018-09-08T22:43:30.539Z,14.20
2018-09-08T22:45:57.667Z,14.20
2018-09-08T22:48:24.806Z,14.20
2018-09-08T22:50:51.930Z,14.20
2018-09-08T22:53:19.060Z,14.20
2018-09-08T22:55:46.185Z,14.30
2018-09-08T22:58:13.347Z,14.30
2018-09-08T23:00:40.498Z,14.20
2018-09-08T23:03:07.673Z,14.20
2018-09-08T23:05:34.827Z,14.30
2018-09-08T23:08:01.967Z,14.30
2018-09-08T23:10:29.066Z,14.30
2018-09-08T23:12:56.417Z,14.30
2018-09-08T23:15:23.594Z,14.20
2018-09-08T23:17:50.842Z,14.30
2018-09-08T23:20:17.941Z,14.40
2018-09-08T23:22:45.197Z,14.40
2018-09-08T23:25:12.460Z,14.50
2018-09-08T23:27:40.324Z,14.50
2018-09-08T23:30:07.653Z,14.50
2018-09-08T23:32:34.853Z,14.60
2018-09-08T23:35:02.041Z,14.60
2018-09-08T23:37:29.181Z,14.60
2018-09-08T23:39:56.450Z,14.60
2018-09-08T23:42:23.581Z,14.50
2018-09-08T23:44:50.698Z,14.50
2018-09-08T23:47:17.796Z,14.40
2018-09-08T23:49:44.966Z,14.30
2018-09-08T23:52:12.124Z,14.30
2018-09-08T23:54:39.462Z,14.30
2018-09-08T23:57:06.602Z,14.30
2018-09-08T23:59:33.965Z,14.20
